sensor_id;sensor_type;location;lat;lon;timestamp;temperature;humidity
6008;DHT22;3032;49.484;11.112;2023-07-20T00:02:06;20.80;99.90
6008;DHT22;3032;49.484;11.112;2023-07-20T00:04:33;20.90;99.90
6008;DHT22;3032;49.484;11.112;2023-07-20T00:07:00;21.20;99.90
6008;DHT22;3032;49.484;11.112;2023-07-20T00:09:26;20.80;99.90
6008;DHT22;3032;49.484;11.112;2023-07-20T00:11:53;21.20;99.90
6008;DHT22;3032;49.484;11.112;2023-07-20T00:14:18;20.80;99.90
6008;DHT22;3032;49.484;11.112;2023-07-20T00:16:54;20.90;99.90
6008;DHT22;3032;49.484;11.112;2023-07-20T00:19:24;20.80;99.90
6008;DHT22;3032;49.484;11.112;2023-07-20T00:21:50;21.30;99.90
6008;DHT22;3032;49.484;11.112;2023-07-20T00:24:16;21.40;99.90
6008;DHT22;3032;49.484;11.112;2023-07-20T00:26:42;21.40;99.90
6008;DHT22;3032;49.484;11.112;2023-07-20T00:29:07;21.00;99.90
6008;DHT22;3032;49.484;11.112;2023-07-20T00:31:33;20.90;99.90
6008;DHT22;3032;49.484;11.112;2023-07-20T00:34:00;21.00;99.90
6008;DHT22;3032;49.484;11.112;2023-07-20T00:36:26;20.80;99.90
6008;DHT22;3032;49.484;11.112;2023-07-20T00:38:51;21.30;99.90
6008;DHT22;3032;49.484;11.112;2023-07-20T00:41:17;20.90;99.90
6008;DHT22;3032;49.484;11.112;2023-07-20T00:43:42;21.20;99.90
6008;DHT22;3032;49.484;11.112;2023-07-20T00:46:09;21.20;99.90
6008;DHT22;3032;49.484;11.112;2023-07-20T00:48:34;21.30;99.90
6008;DHT22;3032;49.484;11.112;2023-07-20T00:51:02;21.00;99.90
6008;DHT22;3032;49.484;11.112;2023-07-20T00:53:28;21.10;99.90
6008;DHT22;3032;49.484;11.112;2023-07-20T00:55:54;20.60;99.90
6008;DHT22;3032;49.484;11.112;2023-07-20T00:58:20;21.20;99.90
6008;DHT22;3032;49.484;11.112;2023-07-20T01:00:45;21.00;99.90
6008;DHT22;3032;49.484;11.112;2023-07-20T01:03:14;20.50;99.90
6008;DHT22;3032;49.484;11.112;2023-07-20T01:12:07;19.80;99.90
6008;DHT22;3032;49.484;11.112;2023-07-20T01:14:40;20.00;99.90
6008;DHT22;3032;49.484;11.112;2023-07-20T01:17:06;20.10;99.90
6008;DHT22;3032;49.484;11.112;2023-07-20T01:19:32;20.10;99.90
6008;DHT22;3032;49.484;11.112;2023-07-20T01:22:17;20.80;99.90
6008;DHT22;3032;49.484;11.112;2023-07-20T01:30:52;20.40;99.90
6008;DHT22;3032;49.484;11.112;2023-07-20T01:33:22;20.40;99.90
6008;DHT22;3032;49.484;11.112;2023-07-20T01:36:04;20.40;99.90
6008;DHT22;3032;49.484;11.112;2023-07-20T01:38:32;20.30;99.90
6008;DHT22;3032;49.484;11.112;2023-07-20T01:41:00;20.30;99.90
6008;DHT22;3032;49.484;11.112;2023-07-20T01:43:26;20.30;99.90
6008;DHT22;3032;49.484;11.112;2023-07-20T01:45:52;20.20;99.90
6008;DHT22;3032;49.484;11.112;2023-07-20T01:48:19;20.10;99.90
6008;DHT22;3032;49.484;11.112;2023-07-20T01:50:46;20.00;99.90
6008;DHT22;3032;49.484;11.112;2023-07-20T01:53:12;19.90;99.90
6008;DHT22;3032;49.484;11.112;2023-07-20T01:55:39;19.90;99.90
6008;DHT22;3032;49.484;11.112;2023-07-20T01:58:06;20.30;99.90
6008;DHT22;3032;49.484;11.112;2023-07-20T02:00:32;20.00;99.90
6008;DHT22;3032;49.484;11.112;2023-07-20T02:02:58;19.70;99.90
6008;DHT22;3032;49.484;11.112;2023-07-20T02:05:23;19.70;99.90
6008;DHT22;3032;49.484;11.112;2023-07-20T02:07:49;20.20;99.90
6008;DHT22;3032;49.484;11.112;2023-07-20T02:10:15;19.70;99.90
6008;DHT22;3032;49.484;11.112;2023-07-20T02:12:44;19.80;99.90
6008;DHT22;3032;49.484;11.112;2023-07-20T02:15:12;20.10;99.90
6008;DHT22;3032;49.484;11.112;2023-07-20T02:17:40;20.30;99.90
6008;DHT22;3032;49.484;11.112;2023-07-20T02:20:07;20.50;99.90
6008;DHT22;3032;49.484;11.112;2023-07-20T02:22:39;19.90;99.90
6008;DHT22;3032;49.484;11.112;2023-07-20T02:25:06;20.50;99.90
6008;DHT22;3032;49.484;11.112;2023-07-20T02:27:35;20.10;99.90
6008;DHT22;3032;49.484;11.112;2023-07-20T02:30:01;20.20;99.90
6008;DHT22;3032;49.484;11.112;2023-07-20T02:32:27;20.30;99.90
6008;DHT22;3032;49.484;11.112;2023-07-20T02:34:53;20.20;99.90
6008;DHT22;3032;49.484;11.112;2023-07-20T02:37:19;20.30;99.90
6008;DHT22;3032;49.484;11.112;2023-07-20T02:39:45;21.00;99.90
6008;DHT22;3032;49.484;11.112;2023-07-20T02:42:10;21.00;99.90
6008;DHT22;3032;49.484;11.112;2023-07-20T02:44:36;21.00;99.90
6008;DHT22;3032;49.484;11.112;2023-07-20T02:47:02;20.30;99.90
6008;DHT22;3032;49.484;11.112;2023-07-20T02:49:28;20.40;99.90
6008;DHT22;3032;49.484;11.112;2023-07-20T02:51:56;21.00;99.90
6008;DHT22;3032;49.484;11.112;2023-07-20T02:54:23;21.20;99.90
6008;DHT22;3032;49.484;11.112;2023-07-20T02:56:49;20.60;99.90
6008;DHT22;3032;49.484;11.112;2023-07-20T02:59:15;20.60;99.90
6008;DHT22;3032;49.484;11.112;2023-07-20T03:01:41;21.30;99.90
6008;DHT22;3032;49.484;11.112;2023-07-20T03:04:10;21.20;99.90
6008;DHT22;3032;49.484;11.112;2023-07-20T03:06:36;20.60;99.90
6008;DHT22;3032;49.484;11.112;2023-07-20T03:09:03;21.20;99.90
6008;DHT22;3032;49.484;11.112;2023-07-20T03:11:36;20.50;99.90
6008;DHT22;3032;49.484;11.112;2023-07-20T03:14:02;20.40;99.90
6008;DHT22;3032;49.484;11.112;2023-07-20T03:16:28;20.70;99.90
6008;DHT22;3032;49.484;11.112;2023-07-20T03:18:53;20.50;99.90
6008;DHT22;3032;49.484;11.112;2023-07-20T03:21:19;20.10;99.90
6008;DHT22;3032;49.484;11.112;2023-07-20T03:23:49;20.40;99.90
6008;DHT22;3032;49.484;11.112;2023-07-20T03:26:15;20.10;99.90
6008;DHT22;3032;49.484;11.112;2023-07-20T03:28:42;20.00;99.90
6008;DHT22;3032;49.484;11.112;2023-07-20T03:31:07;20.00;99.90
6008;DHT22;3032;49.484;11.112;2023-07-20T03:33:34;20.00;99.90
6008;DHT22;3032;49.484;11.112;2023-07-20T03:36:01;20.00;99.90
6008;DHT22;3032;49.484;11.112;2023-07-20T03:38:28;20.60;99.90
6008;DHT22;3032;49.484;11.112;2023-07-20T03:40:58;19.90;99.90
6008;DHT22;3032;49.484;11.112;2023-07-20T03:43:26;20.00;99.90
6008;DHT22;3032;49.484;11.112;2023-07-20T03:45:52;20.10;99.90
6008;DHT22;3032;49.484;11.112;2023-07-20T03:48:20;20.80;99.90
6008;DHT22;3032;49.484;11.112;2023-07-20T03:50:48;20.30;99.90
6008;DHT22;3032;49.484;11.112;2023-07-20T03:53:15;20.80;99.90
6008;DHT22;3032;49.484;11.112;2023-07-20T03:55:41;20.20;99.90
6008;DHT22;3032;49.484;11.112;2023-07-20T03:58:07;20.20;99.90
6008;DHT22;3032;49.484;11.112;2023-07-20T04:00:34;20.90;99.90
6008;DHT22;3032;49.484;11.112;2023-07-20T04:03:00;20.90;99.90
6008;DHT22;3032;49.484;11.112;2023-07-20T04:05:26;20.30;99.90
6008;DHT22;3032;49.484;11.112;2023-07-20T04:07:52;20.40;99.90
6008;DHT22;3032;49.484;11.112;2023-07-20T04:10:18;21.20;99.90
6008;DHT22;3032;49.484;11.112;2023-07-20T04:12:45;20.70;99.90
6008;DHT22;3032;49.484;11.112;2023-07-20T04:15:17;21.30;99.90
6008;DHT22;3032;49.484;11.112;2023-07-20T04:17:52;21.00;99.90
6008;DHT22;3032;49.484;11.112;2023-07-20T04:20:19;20.70;99.90
6008;DHT22;3032;49.484;11.112;2023-07-20T04:22:55;20.70;99.90
6008;DHT22;3032;49.484;11.112;2023-07-20T04:25:27;20.70;99.90
6008;DHT22;3032;49.484;11.112;2023-07-20T04:28:08;20.70;99.90
6008;DHT22;3032;49.484;11.112;2023-07-20T04:30:35;21.00;99.90
6008;DHT22;3032;49.484;11.112;2023-07-20T04:33:01;20.70;99.90
6008;DHT22;3032;49.484;11.112;2023-07-20T04:35:53;20.80;99.90
6008;DHT22;3032;49.484;11.112;2023-07-20T04:38:19;21.00;99.90
6008;DHT22;3032;49.484;11.112;2023-07-20T04:40:45;21.20;99.90
6008;DHT22;3032;49.484;11.112;2023-07-20T04:43:11;22.40;99.90
6008;DHT22;3032;49.484;11.112;2023-07-20T04:45:37;22.10;99.90
6008;DHT22;3032;49.484;11.112;2023-07-20T04:48:05;22.20;99.90
6008;DHT22;3032;49.484;11.112;2023-07-20T04:50:30;22.70;99.90
6008;DHT22;3032;49.484;11.112;2023-07-20T04:52:56;23.70;99.90
6008;DHT22;3032;49.484;11.112;2023-07-20T04:55:22;25.10;99.90
6008;DHT22;3032;49.484;11.112;2023-07-20T04:57:47;24.60;99.90
6008;DHT22;3032;49.484;11.112;2023-07-20T05:00:13;24.70;99.90
6008;DHT22;3032;49.484;11.112;2023-07-20T05:02:39;25.10;99.90
6008;DHT22;3032;49.484;11.112;2023-07-20T05:05:08;25.40;99.90
6008;DHT22;3032;49.484;11.112;2023-07-20T05:07:34;25.30;99.90
6008;DHT22;3032;49.484;11.112;2023-07-20T05:10:40;24.80;99.90
6008;DHT22;3032;49.484;11.112;2023-07-20T05:13:54;25.60;99.90
6008;DHT22;3032;49.484;11.112;2023-07-20T05:17:02;27.80;99.90
6008;DHT22;3032;49.484;11.112;2023-07-20T05:19:53;28.30;99.90
6008;DHT22;3032;49.484;11.112;2023-07-20T05:26:03;27.00;99.90
6008;DHT22;3032;49.484;11.112;2023-07-20T05:28:50;26.00;99.90
6008;DHT22;3032;49.484;11.112;2023-07-20T05:31:15;25.40;99.90
6008;DHT22;3032;49.484;11.112;2023-07-20T05:33:41;25.00;99.90
6008;DHT22;3032;49.484;11.112;2023-07-20T05:36:06;24.40;99.90
6008;DHT22;3032;49.484;11.112;2023-07-20T05:38:32;23.50;99.90
6008;DHT22;3032;49.484;11.112;2023-07-20T05:41:00;23.80;99.90
6008;DHT22;3032;49.484;11.112;2023-07-20T05:43:29;24.40;99.90
6008;DHT22;3032;49.484;11.112;2023-07-20T05:45:54;25.60;99.90
6008;DHT22;3032;49.484;11.112;2023-07-20T05:48:20;27.60;99.90
6008;DHT22;3032;49.484;11.112;2023-07-20T05:50:45;28.90;99.90
6008;DHT22;3032;49.484;11.112;2023-07-20T05:53:11;29.30;99.90
6008;DHT22;3032;49.484;11.112;2023-07-20T05:55:37;28.80;99.90
6008;DHT22;3032;49.484;11.112;2023-07-20T05:58:22;27.90;99.40
6008;DHT22;3032;49.484;11.112;2023-07-20T06:01:23;26.40;99.90
6008;DHT22;3032;49.484;11.112;2023-07-20T06:04:43;26.40;99.90
6008;DHT22;3032;49.484;11.112;2023-07-20T06:07:39;27.20;99.90
6008;DHT22;3032;49.484;11.112;2023-07-20T06:10:06;28.70;99.90
6008;DHT22;3032;49.484;11.112;2023-07-20T06:12:31;29.50;99.70
6008;DHT22;3032;49.484;11.112;2023-07-20T06:15:02;30.70;96.90
6008;DHT22;3032;49.484;11.112;2023-07-20T06:17:28;30.60;95.70
6008;DHT22;3032;49.484;11.112;2023-07-20T06:19:53;31.50;94.20
6008;DHT22;3032;49.484;11.112;2023-07-20T06:22:19;32.60;93.80
6008;DHT22;3032;49.484;11.112;2023-07-20T06:24:44;33.10;91.20
6008;DHT22;3032;49.484;11.112;2023-07-20T06:27:10;33.30;89.70
6008;DHT22;3032;49.484;11.112;2023-07-20T06:29:37;34.10;86.10
6008;DHT22;3032;49.484;11.112;2023-07-20T06:32:03;35.10;84.00
6008;DHT22;3032;49.484;11.112;2023-07-20T06:34:29;35.80;78.10
6008;DHT22;3032;49.484;11.112;2023-07-20T06:36:55;36.70;76.80
6008;DHT22;3032;49.484;11.112;2023-07-20T06:39:20;37.30;73.70
6008;DHT22;3032;49.484;11.112;2023-07-20T06:41:47;37.50;69.60
6008;DHT22;3032;49.484;11.112;2023-07-20T06:44:13;37.40;66.10
6008;DHT22;3032;49.484;11.112;2023-07-20T06:46:38;38.10;64.80
6008;DHT22;3032;49.484;11.112;2023-07-20T06:49:06;37.50;63.50
6008;DHT22;3032;49.484;11.112;2023-07-20T06:51:32;37.00;63.60
6008;DHT22;3032;49.484;11.112;2023-07-20T06:53:57;37.10;62.50
6008;DHT22;3032;49.484;11.112;2023-07-20T06:56:23;37.00;62.90
6008;DHT22;3032;49.484;11.112;2023-07-20T06:58:48;37.30;62.10
6008;DHT22;3032;49.484;11.112;2023-07-20T07:01:14;35.60;61.60
6008;DHT22;3032;49.484;11.112;2023-07-20T07:03:40;33.30;64.30
6008;DHT22;3032;49.484;11.112;2023-07-20T07:06:05;32.50;66.60
6008;DHT22;3032;49.484;11.112;2023-07-20T07:08:31;32.70;69.40
6008;DHT22;3032;49.484;11.112;2023-07-20T07:10:57;34.10;67.30
6008;DHT22;3032;49.484;11.112;2023-07-20T07:13:22;33.80;63.80
6008;DHT22;3032;49.484;11.112;2023-07-20T07:15:48;32.10;65.10
6008;DHT22;3032;49.484;11.112;2023-07-20T07:18:14;31.80;65.80
6008;DHT22;3032;49.484;11.112;2023-07-20T07:20:39;32.20;66.20
6008;DHT22;3032;49.484;11.112;2023-07-20T07:23:05;32.90;65.40
6008;DHT22;3032;49.484;11.112;2023-07-20T07:25:30;33.70;63.70
6008;DHT22;3032;49.484;11.112;2023-07-20T07:27:57;34.20;60.80
6008;DHT22;3032;49.484;11.112;2023-07-20T07:30:23;33.40;61.20
6008;DHT22;3032;49.484;11.112;2023-07-20T07:32:48;32.50;62.50
6008;DHT22;3032;49.484;11.112;2023-07-20T07:35:14;33.60;64.60
6008;DHT22;3032;49.484;11.112;2023-07-20T07:37:40;35.90;59.30
6008;DHT22;3032;49.484;11.112;2023-07-20T07:40:08;37.00;57.70
6008;DHT22;3032;49.484;11.112;2023-07-20T07:42:33;38.50;56.00
6008;DHT22;3032;49.484;11.112;2023-07-20T07:44:59;39.00;54.50
6008;DHT22;3032;49.484;11.112;2023-07-20T07:47:25;38.80;52.50
6008;DHT22;3032;49.484;11.112;2023-07-20T07:49:50;38.50;52.20
6008;DHT22;3032;49.484;11.112;2023-07-20T07:52:16;38.10;50.90
6008;DHT22;3032;49.484;11.112;2023-07-20T07:54:41;37.80;53.40
6008;DHT22;3032;49.484;11.112;2023-07-20T07:57:07;38.60;51.00
6008;DHT22;3032;49.484;11.112;2023-07-20T07:59:33;38.60;50.20
6008;DHT22;3032;49.484;11.112;2023-07-20T08:02:05;39.40;50.10
6008;DHT22;3032;49.484;11.112;2023-07-20T08:04:31;40.60;50.10
6008;DHT22;3032;49.484;11.112;2023-07-20T08:06:57;41.00;47.00
6008;DHT22;3032;49.484;11.112;2023-07-20T08:09:23;41.00;46.20
6008;DHT22;3032;49.484;11.112;2023-07-20T08:11:48;40.50;44.70
6008;DHT22;3032;49.484;11.112;2023-07-20T08:14:15;37.70;47.00
6008;DHT22;3032;49.484;11.112;2023-07-20T08:16:40;37.20;50.00
6008;DHT22;3032;49.484;11.112;2023-07-20T08:19:06;38.60;48.60
6008;DHT22;3032;49.484;11.112;2023-07-20T08:21:31;37.60;46.40
6008;DHT22;3032;49.484;11.112;2023-07-20T08:23:57;38.10;47.90
6008;DHT22;3032;49.484;11.112;2023-07-20T08:26:23;39.50;47.10
6008;DHT22;3032;49.484;11.112;2023-07-20T08:28:49;40.60;45.60
6008;DHT22;3032;49.484;11.112;2023-07-20T08:31:15;40.10;45.00
6008;DHT22;3032;49.484;11.112;2023-07-20T08:33:40;37.70;45.50
6008;DHT22;3032;49.484;11.112;2023-07-20T08:36:06;36.80;47.90
6008;DHT22;3032;49.484;11.112;2023-07-20T08:38:31;37.30;48.50
6008;DHT22;3032;49.484;11.112;2023-07-20T08:40:57;37.40;47.80
6008;DHT22;3032;49.484;11.112;2023-07-20T08:43:25;38.60;47.30
6008;DHT22;3032;49.484;11.112;2023-07-20T08:45:52;39.30;45.60
6008;DHT22;3032;49.484;11.112;2023-07-20T08:48:20;38.60;45.80
6008;DHT22;3032;49.484;11.112;2023-07-20T08:50:50;38.90;46.20
6008;DHT22;3032;49.484;11.112;2023-07-20T08:53:17;39.60;45.20
6008;DHT22;3032;49.484;11.112;2023-07-20T08:55:44;40.20;45.40
6008;DHT22;3032;49.484;11.112;2023-07-20T08:58:12;40.10;43.60
6008;DHT22;3032;49.484;11.112;2023-07-20T09:00:38;38.40;44.60
6008;DHT22;3032;49.484;11.112;2023-07-20T09:03:04;37.80;45.40
6008;DHT22;3032;49.484;11.112;2023-07-20T09:05:31;36.60;45.60
6008;DHT22;3032;49.484;11.112;2023-07-20T09:07:56;36.40;46.50
6008;DHT22;3032;49.484;11.112;2023-07-20T09:10:23;37.20;46.00
6008;DHT22;3032;49.484;11.112;2023-07-20T09:12:49;36.50;45.00
6008;DHT22;3032;49.484;11.112;2023-07-20T09:15:15;37.20;46.40
6008;DHT22;3032;49.484;11.112;2023-07-20T09:17:46;38.40;43.50
6008;DHT22;3032;49.484;11.112;2023-07-20T09:20:14;39.00;42.90
6008;DHT22;3032;49.484;11.112;2023-07-20T09:22:40;38.60;43.10
6008;DHT22;3032;49.484;11.112;2023-07-20T09:25:11;39.10;43.30
6008;DHT22;3032;49.484;11.112;2023-07-20T09:27:42;38.70;43.50
6008;DHT22;3032;49.484;11.112;2023-07-20T09:30:08;39.00;43.90
6008;DHT22;3032;49.484;11.112;2023-07-20T09:32:48;39.40;43.20
6008;DHT22;3032;49.484;11.112;2023-07-20T09:37:41;40.30;42.30
6008;DHT22;3032;49.484;11.112;2023-07-20T09:40:11;41.10;41.00
6008;DHT22;3032;49.484;11.112;2023-07-20T09:42:37;41.30;38.90
6008;DHT22;3032;49.484;11.112;2023-07-20T09:45:06;41.20;39.10
6008;DHT22;3032;49.484;11.112;2023-07-20T09:47:36;39.40;38.80
6008;DHT22;3032;49.484;11.112;2023-07-20T09:50:03;38.70;40.10
6008;DHT22;3032;49.484;11.112;2023-07-20T09:52:29;37.10;40.60
6008;DHT22;3032;49.484;11.112;2023-07-20T09:54:55;35.70;42.60
6008;DHT22;3032;49.484;11.112;2023-07-20T09:57:21;34.50;43.40
6008;DHT22;3032;49.484;11.112;2023-07-20T09:59:47;34.10;43.70
6008;DHT22;3032;49.484;11.112;2023-07-20T10:02:25;33.70;44.90
6008;DHT22;3032;49.484;11.112;2023-07-20T10:04:54;33.40;45.50
6008;DHT22;3032;49.484;11.112;2023-07-20T10:07:22;33.40;45.50
6008;DHT22;3032;49.484;11.112;2023-07-20T10:09:52;34.80;43.10
6008;DHT22;3032;49.484;11.112;2023-07-20T10:12:20;35.80;42.90
6008;DHT22;3032;49.484;11.112;2023-07-20T10:14:54;36.70;42.70
6008;DHT22;3032;49.484;11.112;2023-07-20T10:17:25;37.30;42.30
6008;DHT22;3032;49.484;11.112;2023-07-20T10:19:54;37.80;41.20
6008;DHT22;3032;49.484;11.112;2023-07-20T10:22:30;38.10;38.90
6008;DHT22;3032;49.484;11.112;2023-07-20T10:24:58;38.90;39.10
6008;DHT22;3032;49.484;11.112;2023-07-20T10:27:24;39.20;38.40
6008;DHT22;3032;49.484;11.112;2023-07-20T10:29:51;39.00;38.50
6008;DHT22;3032;49.484;11.112;2023-07-20T10:32:19;39.00;38.70
6008;DHT22;3032;49.484;11.112;2023-07-20T10:34:52;39.10;38.60
6008;DHT22;3032;49.484;11.112;2023-07-20T10:37:46;39.40;36.00
6008;DHT22;3032;49.484;11.112;2023-07-20T10:40:33;39.70;35.60
6008;DHT22;3032;49.484;11.112;2023-07-20T10:43:05;39.60;36.00
6008;DHT22;3032;49.484;11.112;2023-07-20T10:48:14;39.80;35.70
6008;DHT22;3032;49.484;11.112;2023-07-20T10:50:41;39.50;36.20
6008;DHT22;3032;49.484;11.112;2023-07-20T10:53:15;39.00;36.60
6008;DHT22;3032;49.484;11.112;2023-07-20T10:55:41;39.30;36.60
6008;DHT22;3032;49.484;11.112;2023-07-20T10:58:12;39.60;35.70
6008;DHT22;3032;49.484;11.112;2023-07-20T11:01:01;39.60;35.20
6008;DHT22;3032;49.484;11.112;2023-07-20T11:03:38;38.90;35.00
6008;DHT22;3032;49.484;11.112;2023-07-20T11:09:05;36.40;37.10
6008;DHT22;3032;49.484;11.112;2023-07-20T11:11:34;36.50;35.70
6008;DHT22;3032;49.484;11.112;2023-07-20T11:14:10;37.10;37.50
6008;DHT22;3032;49.484;11.112;2023-07-20T11:16:38;37.50;36.90
6008;DHT22;3032;49.484;11.112;2023-07-20T11:19:05;38.30;35.10
6008;DHT22;3032;49.484;11.112;2023-07-20T11:21:38;38.40;36.10
6008;DHT22;3032;49.484;11.112;2023-07-20T11:24:05;38.80;34.40
6008;DHT22;3032;49.484;11.112;2023-07-20T11:26:39;39.20;35.00
6008;DHT22;3032;49.484;11.112;2023-07-20T11:29:05;39.40;35.60
6008;DHT22;3032;49.484;11.112;2023-07-20T11:31:30;39.20;34.50
6008;DHT22;3032;49.484;11.112;2023-07-20T11:34:00;39.60;35.40
6008;DHT22;3032;49.484;11.112;2023-07-20T11:36:25;39.80;32.50
6008;DHT22;3032;49.484;11.112;2023-07-20T11:38:51;39.80;34.10
6008;DHT22;3032;49.484;11.112;2023-07-20T11:41:17;40.00;34.30
6008;DHT22;3032;49.484;11.112;2023-07-20T11:43:45;39.40;34.30
6008;DHT22;3032;49.484;11.112;2023-07-20T11:46:11;39.50;35.30
6008;DHT22;3032;49.484;11.112;2023-07-20T11:48:36;40.10;35.00
6008;DHT22;3032;49.484;11.112;2023-07-20T11:51:02;40.20;34.70
6008;DHT22;3032;49.484;11.112;2023-07-20T11:53:28;40.10;35.00
6008;DHT22;3032;49.484;11.112;2023-07-20T11:55:54;39.60;35.20
6008;DHT22;3032;49.484;11.112;2023-07-20T11:58:20;39.30;34.40
6008;DHT22;3032;49.484;11.112;2023-07-20T12:00:47;39.30;34.10
6008;DHT22;3032;49.484;11.112;2023-07-20T12:03:13;39.00;33.80
6008;DHT22;3032;49.484;11.112;2023-07-20T12:05:39;37.70;33.70
6008;DHT22;3032;49.484;11.112;2023-07-20T12:08:05;37.10;32.90
6008;DHT22;3032;49.484;11.112;2023-07-20T12:10:30;36.60;35.30
6008;DHT22;3032;49.484;11.112;2023-07-20T12:13:02;36.30;34.00
6008;DHT22;3032;49.484;11.112;2023-07-20T12:15:29;36.70;32.90
6008;DHT22;3032;49.484;11.112;2023-07-20T12:18:00;37.20;32.30
6008;DHT22;3032;49.484;11.112;2023-07-20T12:20:46;37.90;32.70
6008;DHT22;3032;49.484;11.112;2023-07-20T12:23:13;38.40;33.20
6008;DHT22;3032;49.484;11.112;2023-07-20T12:25:46;38.10;32.30
6008;DHT22;3032;49.484;11.112;2023-07-20T12:28:14;38.60;32.40
6008;DHT22;3032;49.484;11.112;2023-07-20T12:30:41;38.80;31.80
6008;DHT22;3032;49.484;11.112;2023-07-20T12:33:07;38.40;32.00
6008;DHT22;3032;49.484;11.112;2023-07-20T12:35:33;38.10;32.40
6008;DHT22;3032;49.484;11.112;2023-07-20T12:37:59;38.30;31.80
6008;DHT22;3032;49.484;11.112;2023-07-20T12:40:25;38.60;31.40
6008;DHT22;3032;49.484;11.112;2023-07-20T12:42:50;38.70;32.30
6008;DHT22;3032;49.484;11.112;2023-07-20T12:45:16;38.70;33.50
6008;DHT22;3032;49.484;11.112;2023-07-20T12:47:42;38.50;33.60
6008;DHT22;3032;49.484;11.112;2023-07-20T12:50:09;38.10;32.80
6008;DHT22;3032;49.484;11.112;2023-07-20T12:52:39;37.30;34.40
6008;DHT22;3032;49.484;11.112;2023-07-20T12:55:06;36.00;35.00
6008;DHT22;3032;49.484;11.112;2023-07-20T12:57:36;36.10;36.20
6008;DHT22;3032;49.484;11.112;2023-07-20T13:00:03;36.40;35.20
6008;DHT22;3032;49.484;11.112;2023-07-20T13:02:31;36.50;35.40
6008;DHT22;3032;49.484;11.112;2023-07-20T13:04:57;35.70;36.00
6008;DHT22;3032;49.484;11.112;2023-07-20T13:07:36;34.90;37.00
6008;DHT22;3032;49.484;11.112;2023-07-20T13:10:03;35.10;37.30
6008;DHT22;3032;49.484;11.112;2023-07-20T13:12:31;35.40;36.30
6008;DHT22;3032;49.484;11.112;2023-07-20T13:14:57;35.20;35.60
6008;DHT22;3032;49.484;11.112;2023-07-20T13:17:26;34.90;35.80
6008;DHT22;3032;49.484;11.112;2023-07-20T13:19:51;35.50;34.90
6008;DHT22;3032;49.484;11.112;2023-07-20T13:22:17;35.80;35.90
6008;DHT22;3032;49.484;11.112;2023-07-20T13:24:45;36.20;35.70
6008;DHT22;3032;49.484;11.112;2023-07-20T13:27:17;36.80;35.50
6008;DHT22;3032;49.484;11.112;2023-07-20T13:29:43;37.20;35.10
6008;DHT22;3032;49.484;11.112;2023-07-20T13:32:10;37.10;34.70
6008;DHT22;3032;49.484;11.112;2023-07-20T13:34:36;36.80;34.20
6008;DHT22;3032;49.484;11.112;2023-07-20T13:37:02;36.90;34.30
6008;DHT22;3032;49.484;11.112;2023-07-20T13:39:27;37.00;33.80
6008;DHT22;3032;49.484;11.112;2023-07-20T13:41:54;37.20;33.90
6008;DHT22;3032;49.484;11.112;2023-07-20T13:44:22;37.20;33.70
6008;DHT22;3032;49.484;11.112;2023-07-20T13:46:48;37.00;33.80
6008;DHT22;3032;49.484;11.112;2023-07-20T13:49:14;36.60;33.80
6008;DHT22;3032;49.484;11.112;2023-07-20T13:51:41;36.00;33.80
6008;DHT22;3032;49.484;11.112;2023-07-20T13:54:07;35.40;35.10
6008;DHT22;3032;49.484;11.112;2023-07-20T13:56:33;35.10;35.70
6008;DHT22;3032;49.484;11.112;2023-07-20T13:58:58;35.40;35.60
6008;DHT22;3032;49.484;11.112;2023-07-20T14:01:24;36.00;35.00
6008;DHT22;3032;49.484;11.112;2023-07-20T14:03:50;36.10;34.80
6008;DHT22;3032;49.484;11.112;2023-07-20T14:06:16;35.50;34.00
6008;DHT22;3032;49.484;11.112;2023-07-20T14:08:43;35.60;34.30
6008;DHT22;3032;49.484;11.112;2023-07-20T14:11:12;36.10;34.50
6008;DHT22;3032;49.484;11.112;2023-07-20T14:13:38;36.00;34.30
6008;DHT22;3032;49.484;11.112;2023-07-20T14:16:03;36.10;34.10
6008;DHT22;3032;49.484;11.112;2023-07-20T14:18:29;36.10;33.40
6008;DHT22;3032;49.484;11.112;2023-07-20T14:20:54;35.90;34.30
6008;DHT22;3032;49.484;11.112;2023-07-20T14:23:20;35.60;34.00
6008;DHT22;3032;49.484;11.112;2023-07-20T14:25:46;35.80;34.20
6008;DHT22;3032;49.484;11.112;2023-07-20T14:28:11;36.30;33.30
6008;DHT22;3032;49.484;11.112;2023-07-20T14:30:38;36.60;34.20
6008;DHT22;3032;49.484;11.112;2023-07-20T14:33:03;36.70;33.60
6008;DHT22;3032;49.484;11.112;2023-07-20T14:35:29;36.50;34.20
6008;DHT22;3032;49.484;11.112;2023-07-20T14:37:55;35.90;34.00
6008;DHT22;3032;49.484;11.112;2023-07-20T14:40:20;35.50;33.20
6008;DHT22;3032;49.484;11.112;2023-07-20T14:42:46;35.30;34.20
6008;DHT22;3032;49.484;11.112;2023-07-20T14:45:12;35.40;34.50
6008;DHT22;3032;49.484;11.112;2023-07-20T14:47:37;35.80;34.10
6008;DHT22;3032;49.484;11.112;2023-07-20T14:50:03;35.60;34.20
6008;DHT22;3032;49.484;11.112;2023-07-20T14:52:29;35.50;35.20
6008;DHT22;3032;49.484;11.112;2023-07-20T14:54:55;35.60;34.10
6008;DHT22;3032;49.484;11.112;2023-07-20T14:57:20;35.40;34.30
6008;DHT22;3032;49.484;11.112;2023-07-20T14:59:49;34.80;34.80
6008;DHT22;3032;49.484;11.112;2023-07-20T15:02:14;34.80;34.40
6008;DHT22;3032;49.484;11.112;2023-07-20T15:04:50;34.70;34.90
6008;DHT22;3032;49.484;11.112;2023-07-20T15:07:20;34.60;34.70
6008;DHT22;3032;49.484;11.112;2023-07-20T15:09:47;34.40;35.50
6008;DHT22;3032;49.484;11.112;2023-07-20T15:12:13;34.60;34.60
6008;DHT22;3032;49.484;11.112;2023-07-20T15:14:40;34.80;35.20
6008;DHT22;3032;49.484;11.112;2023-07-20T15:17:07;34.90;34.90
6008;DHT22;3032;49.484;11.112;2023-07-20T15:19:32;34.70;36.20
6008;DHT22;3032;49.484;11.112;2023-07-20T15:21:59;33.90;36.50
6008;DHT22;3032;49.484;11.112;2023-07-20T15:24:25;33.20;35.50
6008;DHT22;3032;49.484;11.112;2023-07-20T15:26:50;33.00;37.80
6008;DHT22;3032;49.484;11.112;2023-07-20T15:29:16;32.00;38.50
6008;DHT22;3032;49.484;11.112;2023-07-20T15:31:41;32.30;36.80
6008;DHT22;3032;49.484;11.112;2023-07-20T15:34:07;32.40;36.70
6008;DHT22;3032;49.484;11.112;2023-07-20T15:36:33;32.10;37.80
6008;DHT22;3032;49.484;11.112;2023-07-20T15:38:58;31.40;39.50
6008;DHT22;3032;49.484;11.112;2023-07-20T15:41:24;30.80;39.50
6008;DHT22;3032;49.484;11.112;2023-07-20T15:43:49;30.90;39.90
6008;DHT22;3032;49.484;11.112;2023-07-20T15:49:06;31.20;39.80
6008;DHT22;3032;49.484;11.112;2023-07-20T15:51:36;30.90;40.30
6008;DHT22;3032;49.484;11.112;2023-07-20T15:54:02;30.50;40.50
6008;DHT22;3032;49.484;11.112;2023-07-20T15:56:28;30.50;39.90
6008;DHT22;3032;49.484;11.112;2023-07-20T15:58:53;30.20;40.70
6008;DHT22;3032;49.484;11.112;2023-07-20T16:01:19;30.10;41.50
6008;DHT22;3032;49.484;11.112;2023-07-20T16:03:45;30.30;41.40
6008;DHT22;3032;49.484;11.112;2023-07-20T16:06:10;30.40;40.70
6008;DHT22;3032;49.484;11.112;2023-07-20T16:08:36;30.50;41.10
6008;DHT22;3032;49.484;11.112;2023-07-20T16:11:01;30.30;40.80
6008;DHT22;3032;49.484;11.112;2023-07-20T16:13:28;30.20;40.70
6008;DHT22;3032;49.484;11.112;2023-07-20T16:15:54;30.00;40.20
6008;DHT22;3032;49.484;11.112;2023-07-20T16:18:20;29.80;41.00